EDVE

Braunschweig Wolfsburg Airport

Germany
METAR EDVE 230850Z 26019KT 9999 OVC020 09/05 Q1017
Observed Flight Rules
Oct-23 @ 08:50 UTC (50 minutes ago) Marginal Visual Flight Rules
Wind Visibility Clouds
260° at 19 knots 10,000+ meters
  • Overcast at 2,000' AGL
Temperatures Readings
Current 9°C / 48°F
Dewpoint 5°C / 41°F
Humidity 76%
Altimeter 30.03" Hg
Pressure 1017 hPa
Elevation 88
METAR EDVE 230850Z 26019KT 9999 OVC020 09/05 Q1017
Observed Flight Rules
Oct-23 @ 08:50 UTC
(50 minutes ago)
MVFR
Wind Visibility
260° at 19 knots 10,000+ meters
Clouds
  • Overcast at 2,000' AGL
Temperature Dewpoint
9°C / 48°F 5°C / 41°F
Humidity Altimeter Pressure
76% 30.03" Hg 1017 hPa